Time;durP1;ratioP1;P1;durP2;ratioP2;P2;SDS_P1;SDS_P2;PMS_P1;PMS_P2;Temp;Humidity;BMP_temperature;BMP_pressure;BME280_temperature;BME280_humidity;BME280_pressure;Samples;Min_cycle;Max_cycle;Signal;HPM_P1;HPM_P2
2021/05/14 00:00:14;;;;;;;14.25;8.65;;;;;;;13.05;88.21;98265.20;1854617;76;27935;-62
2021/05/14 00:02:49;;;;;;;11.88;8.20;;;;;;;13.06;88.31;98266.94;1835160;77;20218;-61
2021/05/14 00:05:24;;;;;;;11.12;8.28;;;;;;;13.02;88.46;98274.30;1889930;76;22144;-60
2021/05/14 00:08:01;;;;;;;12.23;8.05;;;;;;;12.98;88.59;98266.16;1854640;76;27913;-60
2021/05/14 00:10:48;;;;;;;15.63;8.45;;;;;;;12.95;88.58;98276.52;1827799;78;21257;-63
2021/05/14 00:13:23;;;;;;;13.32;7.35;;;;;;;12.98;88.72;98270.05;1835134;77;22160;-61
2021/05/14 00:15:59;;;;;;;10.82;7.35;;;;;;;12.96;88.81;98273.08;1889892;76;22167;-62
2021/05/14 00:18:33;;;;;;;13.22;7.22;;;;;;;12.94;88.93;98269.20;1870665;76;22140;-62
2021/05/14 00:21:08;;;;;;;10.63;7.03;;;;;;;12.92;88.98;98268.34;1889924;76;22543;-63
2021/05/14 00:23:43;;;;;;;9.90;7.05;;;;;;;12.91;89.01;98263.20;1889951;76;22155;-63
2021/05/14 00:26:17;;;;;;;14.03;7.47;;;;;;;12.88;88.95;98260.20;1870673;76;22113;-61
2021/05/14 00:28:53;;;;;;;11.20;7.65;;;;;;;12.90;89.05;98262.77;1873933;76;27899;-63
2021/05/14 00:31:40;;;;;;;12.53;7.35;;;;;;;12.88;88.80;98261.95;1791633;80;21106;-63
2021/05/14 00:34:20;;;;;;;14.23;6.85;;;;;;;12.92;88.79;98259.28;1869896;76;22172;-63
2021/05/14 00:36:55;;;;;;;10.78;6.83;;;;;;;12.90;88.86;98255.87;1870679;76;22137;-61
2021/05/14 00:39:30;;;;;;;13.10;8.28;;;;;;;12.89;88.84;98255.44;1889967;76;22135;-63
2021/05/14 00:42:05;;;;;;;12.40;6.95;;;;;;;12.87;88.90;98252.44;1889915;76;22192;-62
2021/05/14 00:44:45;;;;;;;11.90;6.40;;;;;;;12.86;89.11;98254.63;1870702;76;22152;-63
2021/05/14 00:47:20;;;;;;;15.32;7.80;;;;;;;12.83;88.97;98250.33;1889929;76;22292;-61
2021/05/14 00:49:55;;;;;;;11.63;7.67;;;;;;;12.85;88.83;98250.30;1873881;76;27933;-63
2021/05/14 00:52:29;;;;;;;11.78;7.33;;;;;;;12.90;88.74;98248.11;1889972;76;22205;-62
2021/05/14 00:55:15;;;;;;;9.68;6.92;;;;;;;12.82;88.77;98244.71;1832416;77;21297;-62
2021/05/14 00:57:56;;;;;;;12.73;7.28;;;;;;;12.84;88.74;98241.67;1889949;76;22570;-61
2021/05/14 01:00:31;;;;;;;9.18;6.90;;;;;;;12.83;88.71;98241.71;1870607;76;22141;-65
2021/05/14 01:03:06;;;;;;;11.40;6.95;;;;;;;12.81;88.54;98245.16;1870652;76;22105;-63
2021/05/14 01:05:52;;;;;;;13.13;7.87;;;;;;;12.76;88.46;98252.55;1760286;81;21119;-63
2021/05/14 01:08:27;;;;;;;14.83;8.35;;;;;;;12.80;88.41;98242.16;1889977;76;22172;-63
2021/05/14 01:11:03;;;;;;;14.47;8.23;;;;;;;12.79;88.40;98238.27;1870706;76;22136;-63
2021/05/14 01:13:40;;;;;;;15.53;7.85;;;;;;;12.79;88.17;98235.24;1870413;76;22168;-64
2021/05/14 01:16:15;;;;;;;11.03;7.00;;;;;;;12.81;88.02;98237.83;1889936;76;22561;-62
2021/05/14 01:18:52;;;;;;;11.95;7.20;;;;;;;12.81;87.89;98232.66;1854610;76;28305;-61
2021/05/14 01:21:39;;;;;;;13.00;6.75;;;;;;;12.80;87.87;98242.16;1760367;81;21275;-62
2021/05/14 01:24:14;;;;;;;13.15;7.35;;;;;;;12.87;87.45;98226.55;1889921;76;22542;-62
2021/05/14 01:26:49;;;;;;;8.50;6.60;;;;;;;12.87;87.44;98229.14;1854582;76;28347;-62
2021/05/14 01:29:24;;;;;;;12.40;7.15;;;;;;;12.90;86.70;98231.69;1870644;76;22148;-61
2021/05/14 01:31:59;;;;;;;8.90;6.67;;;;;;;12.93;86.52;98227.80;1870680;76;22145;-62
2021/05/14 01:34:34;;;;;;;9.48;6.28;;;;;;;12.91;86.44;98241.19;1889947;76;22136;-62
2021/05/14 01:37:15;;;;;;;10.03;6.12;;;;;;;12.90;86.28;98242.93;1889871;76;22192;-61
2021/05/14 01:39:50;;;;;;;13.83;7.00;;;;;;;12.89;86.02;98232.58;1889909;76;22562;-61
2021/05/14 01:42:24;;;;;;;10.93;7.17;;;;;;;12.89;86.02;98224.80;1870666;76;22121;-61
2021/05/14 01:44:59;;;;;;;9.05;6.90;;;;;;;12.87;86.04;98229.14;1870595;76;22146;-62
2021/05/14 01:47:34;;;;;;;10.68;6.33;;;;;;;12.88;85.78;98229.58;1870697;76;22113;-62
2021/05/14 16:22:27;;;;;;;6.95;2.45;;;;;;;18.96;46.41;98042.26;1816800;77;22188;-64
2021/05/14 16:25:04;;;;;;;5.22;2.12;;;;;;;18.93;46.78;98044.97;1843043;76;28086;-65
2021/05/14 16:27:39;;;;;;;3.87;1.82;;;;;;;18.94;47.13;98041.46;1866264;76;22600;-65
2021/05/14 16:30:17;;;;;;;3.92;2.02;;;;;;;18.81;47.66;98039.30;1852809;76;22186;-64
2021/05/14 16:32:53;;;;;;;5.15;2.12;;;;;;;18.65;48.34;98042.91;1865710;76;22627;-64
2021/05/14 16:35:29;;;;;;;5.85;2.87;;;;;;;18.62;48.74;98043.45;1854777;76;22192;-65
2021/05/14 16:38:15;;;;;;;3.60;1.77;;;;;;;18.58;48.98;98044.49;1748680;81;21168;-65
2021/05/14 16:40:50;;;;;;;6.78;3.10;;;;;;;18.65;49.05;98046.83;1857615;76;28004;-65
2021/05/14 16:43:25;;;;;;;5.20;2.47;;;;;;;18.71;49.07;98053.58;1859311;76;22148;-65
2021/05/14 16:45:59;;;;;;;5.72;2.30;;;;;;;18.70;49.17;98051.89;1854551;76;22144;-66
2021/05/14 16:48:35;;;;;;;4.28;2.00;;;;;;;18.66;49.31;98053.74;1840551;76;27924;-65
2021/05/14 16:51:16;;;;;;;3.10;1.77;;;;;;;18.63;49.36;98047.79;1853203;76;22208;-64
2021/05/14 16:53:50;;;;;;;6.12;2.42;;;;;;;18.50;49.69;98050.45;1853286;76;22549;-64
2021/05/14 16:56:25;;;;;;;4.17;2.02;;;;;;;18.38;50.28;98052.58;1849502;76;22173;-65
2021/05/14 16:59:00;;;;;;;5.95;2.10;;;;;;;18.25;50.48;98052.61;1851567;76;22133;-63
2021/05/14 17:01:48;;;;;;;4.42;1.90;;;;;;;18.08;50.89;98058.40;1801027;78;21171;-64
2021/05/14 17:04:22;;;;;;;4.03;2.10;;;;;;;17.97;51.63;98043.11;1859119;76;22220;-63
2021/05/14 17:07:02;;;;;;;4.08;2.20;;;;;;;17.84;52.05;98052.26;1861641;76;22171;-63
2021/05/14 17:09:37;;;;;;;6.60;2.58;;;;;;;17.74;52.27;98053.43;1850797;76;22179;-63
2021/05/14 17:12:20;;;;;;;5.40;2.80;;;;;;;17.65;52.47;98065.45;1857774;76;22815;-63
2021/05/14 17:14:54;;;;;;;6.85;2.95;;;;;;;17.55;52.87;98063.16;1854635;76;28313;-63
2021/05/14 17:17:31;;;;;;;7.45;2.70;;;;;;;17.50;53.16;98055.93;1874264;76;22182;-62
2021/05/14 17:20:08;;;;;;;5.67;2.60;;;;;;;17.43;53.64;98064.84;1851041;76;22136;-62
2021/05/14 17:22:54;;;;;;;5.17;2.50;;;;;;;17.30;53.90;98064.37;1810641;77;21309;-64
2021/05/14 17:25:29;;;;;;;10.70;2.67;;;;;;;17.28;54.24;98071.38;1863222;76;22173;-60
2021/05/14 17:28:10;;;;;;;10.25;2.67;;;;;;;17.24;54.46;98070.20;1854784;76;22604;-63
2021/05/14 17:30:45;;;;;;;6.72;3.27;;;;;;;17.21;54.61;98074.22;1861021;76;22233;-62
2021/05/14 17:33:20;;;;;;;6.58;2.87;;;;;;;17.17;54.76;98076.05;1853471;76;22195;-65
2021/05/14 17:35:54;;;;;;;7.22;2.85;;;;;;;17.15;54.89;98076.56;1870487;76;22145;-63
2021/05/14 17:38:34;;;;;;;8.73;3.52;;;;;;;17.12;55.08;98075.33;1870469;76;22625;-58
2021/05/14 17:41:10;;;;;;;14.70;3.62;;;;;;;17.08;55.28;98072.42;1893647;75;22139;-60
2021/05/14 17:44:04;;;;;;;9.33;3.70;;;;;;;17.03;55.51;98069.11;1863399;75;22156;-58
2021/05/14 17:46:51;;;;;;;11.05;3.98;;;;;;;16.93;55.76;98070.66;1829112;77;21155;-57
2021/05/14 17:49:25;;;;;;;11.60;4.47;;;;;;;16.98;55.91;98071.84;1838803;76;28017;-55
2021/05/14 17:52:20;;;;;;;7.58;4.62;;;;;;;17.02;56.02;98069.56;1850751;76;22243;-56
2021/05/14 17:54:55;;;;;;;10.43;4.67;;;;;;;17.00;56.21;98069.20;1840056;76;27984;-55
2021/05/14 17:57:30;;;;;;;7.37;3.83;;;;;;;17.05;56.22;98070.77;1854841;76;22243;-57
2021/05/14 18:00:07;;;;;;;7.87;4.30;;;;;;;17.05;56.29;98072.06;1836616;76;27891;-56
2021/05/14 18:02:53;;;;;;;10.05;4.15;;;;;;;17.03;56.34;98066.04;1812627;78;21138;-56
2021/05/14 18:05:30;;;;;;;11.53;3.92;;;;;;;17.09;56.32;98065.84;1852129;76;22641;-57
2021/05/14 18:08:04;;;;;;;11.55;3.70;;;;;;;17.09;56.36;98068.45;1852859;76;22136;-56
2021/05/14 18:10:39;;;;;;;8.90;4.47;;;;;;;17.10;56.37;98074.55;1855041;76;22523;-55
2021/05/14 18:13:15;;;;;;;9.75;3.83;;;;;;;17.10;56.51;98071.48;1840309;76;28058;-55
2021/05/14 18:15:52;;;;;;;7.40;3.65;;;;;;;17.12;56.63;98073.60;1866959;76;22271;-56
2021/05/14 18:18:39;;;;;;;7.00;3.50;;;;;;;17.12;56.66;98073.60;1853158;76;22585;-57
2021/05/14 18:21:07;;;;;;;6.12;3.50;;;;;;;17.12;56.70;98073.60;1865723;76;22169;-54
2021/05/14 18:23:57;;;;;;;7.67;3.30;;;;;;;17.07;56.74;98073.31;1836655;77;21149;-57
2021/05/14 18:26:29;;;;;;;6.90;3.47;;;;;;;17.09;56.80;98068.45;1857729;76;22210;-57
2021/05/14 18:29:04;;;;;;;5.08;3.08;;;;;;;17.10;56.82;98062.36;1865689;76;22217;-58
2021/05/14 18:31:39;;;;;;;5.95;2.92;;;;;;;17.09;56.78;98069.76;1855377;76;22286;-56
2021/05/14 18:34:25;;;;;;;6.62;3.35;;;;;;;17.05;56.84;98072.06;1824954;78;21102;-58
2021/05/14 18:36:59;;;;;;;8.00;3.50;;;;;;;17.09;56.79;98068.45;1855275;76;22128;-58
2021/05/14 18:39:34;;;;;;;6.37;3.05;;;;;;;17.09;56.87;98073.67;1856517;76;22186;-61
2021/05/14 18:42:09;;;;;;;6.42;3.65;;;;;;;17.08;56.91;98065.91;1850891;76;22581;-59
2021/05/14 18:44:44;;;;;;;8.60;3.92;;;;;;;17.08;56.91;98071.97;1851120;76;22178;-58
2021/05/14 18:47:19;;;;;;;10.30;3.70;;;;;;;17.08;57.06;98073.73;1866537;76;22133;-58
2021/05/14 18:49:54;;;;;;;9.23;4.00;;;;;;;17.06;57.17;98068.55;1840716;76;28104;-59
2021/05/14 18:52:39;;;;;;;9.40;4.05;;;;;;;17.04;57.22;98074.25;1828346;78;21279;-60
2021/05/14 18:55:15;;;;;;;8.88;4.03;;;;;;;17.08;57.22;98073.28;1856559;76;22152;-58
2021/05/14 18:57:49;;;;;;;8.48;4.22;;;;;;;17.06;57.28;98069.86;1882829;76;22136;-60
2021/05/14 19:00:28;;;;;;;9.40;4.67;;;;;;;17.05;57.35;98069.47;1837166;76;28488;-59
2021/05/14 19:03:03;;;;;;;11.05;5.05;;;;;;;17.06;57.51;98075.06;1870237;76;22603;-59
2021/05/14 19:05:39;;;;;;;8.63;4.58;;;;;;;17.03;57.67;98073.02;1885848;76;22218;-59
2021/05/14 19:08:15;;;;;;;11.80;4.65;;;;;;;17.00;57.65;98077.87;1864330;76;22168;-58
2021/05/14 19:10:50;;;;;;;11.83;4.83;;;;;;;16.97;57.69;98081.88;1839091;76;27964;-59
2021/05/14 19:13:25;;;;;;;9.80;4.90;;;;;;;16.98;57.85;98082.27;1854119;76;38680;-59
2021/05/14 19:16:03;;;;;;;9.90;4.85;;;;;;;16.98;57.90;98084.88;1832724;76;28090;-59
2021/05/14 19:18:48;;;;;;;7.62;3.67;;;;;;;16.93;57.88;98085.45;1794818;79;21134;-59
2021/05/14 19:21:26;;;;;;;7.40;3.45;;;;;;;16.95;57.87;98088.03;1889486;76;22144;-60
2021/05/14 19:47:22;;;;;;;9.30;4.35;;;;;;;16.72;58.22;98088.20;1870222;76;22141;-60
2021/05/14 19:50:16;;;;;;;8.98;4.47;;;;;;;16.72;58.41;98094.70;1889422;76;22167;-60
2021/05/14 19:52:51;;;;;;;8.05;4.35;;;;;;;16.69;58.48;98095.64;1870261;76;22551;-59
2021/05/14 19:55:27;;;;;;;10.20;4.00;;;;;;;16.68;58.52;98103.04;1873288;76;28334;-60
2021/05/14 19:58:02;;;;;;;7.17;3.92;;;;;;;16.73;58.36;98104.67;1870200;76;22650;-59
2021/05/14 20:00:42;;;;;;;7.67;3.75;;;;;;;16.71;58.31;98106.88;1856356;76;22187;-56
2021/05/14 20:03:16;;;;;;;7.65;3.75;;;;;;;16.69;58.41;98108.67;1870157;76;22133;-57
2021/05/14 20:05:51;;;;;;;7.53;4.12;;;;;;;16.68;58.46;98108.25;1870216;76;22559;-58
2021/05/14 20:08:27;;;;;;;6.67;4.10;;;;;;;16.65;58.59;98105.73;1870001;76;22551;-57
2021/05/14 20:11:03;;;;;;;12.18;4.22;;;;;;;16.63;58.76;98110.58;1873456;76;27964;-58
2021/05/14 20:13:37;;;;;;;10.93;4.95;;;;;;;16.65;58.85;98104.43;1870331;76;22152;-58
2021/05/14 20:16:12;;;;;;;10.13;4.80;;;;;;;16.62;58.92;98106.28;1870527;76;22133;-58
2021/05/14 20:18:59;;;;;;;16.27;5.33;;;;;;;16.54;59.00;98108.21;1827543;77;21126;-59
2021/05/14 20:21:34;;;;;;;12.25;5.03;;;;;;;16.54;59.21;98106.48;1889753;76;22179;-58
2021/05/14 20:24:10;;;;;;;10.88;5.15;;;;;;;16.54;59.44;98108.21;1870534;76;22608;-59
2021/05/14 20:26:44;;;;;;;9.38;5.85;;;;;;;16.49;59.61;98109.20;1854666;76;27928;-59
2021/05/14 20:29:34;;;;;;;7.92;5.10;;;;;;;16.52;59.80;98110.02;1870492;76;22547;-58
2021/05/14 20:32:09;;;;;;;8.78;5.12;;;;;;;16.47;59.99;98109.69;1889781;76;22573;-58
2021/05/14 20:34:43;;;;;;;12.15;6.37;;;;;;;16.45;60.16;98104.11;1889780;76;22140;-59
2021/05/14 20:37:22;;;;;;;9.53;5.72;;;;;;;16.41;60.43;98102.47;1870502;76;22140;-60
2021/05/14 20:40:04;;;;;;;9.60;5.87;;;;;;;16.37;60.76;98104.31;1870458;76;22150;-58
2021/05/14 20:42:56;;;;;;;10.23;5.85;;;;;;;16.33;60.95;98100.07;1870622;76;22148;-57
